EMCAS SADF-SAAK
Flight info
| Callsign | EMCAS |
|---|---|
| Flight time | N/A |
| Altitude | 2000 |
| Route | DIRECT VFR |
| Aircraft | C152/L-S/C |
Departure
| Time | 2026-04-26 22:45 |
|---|---|
| Airport | San Fernando Airport (SADF) |
Arrival
| Time | N/A |
|---|---|
| Airport | Isla Martin Garcia Airport (SAAK) |
| Time | Latitude | Longitude | Altitude | Speed | Heading |
|---|---|---|---|---|---|
| 2026-04-26 22:13 | -34.45856 | -58.59119 | 29 ft | 0 kts | 333° |
| 2026-04-26 22:38 | -34.45848 | -58.59097 | 28 ft | 7 kts | 98° |
| 2026-04-26 22:38 | -34.45817 | -58.59077 | 28 ft | 8 kts | 332° |
| 2026-04-26 22:38 | -34.45787 | -58.59042 | 27 ft | 9 kts | 60° |
| 2026-04-26 22:38 | -34.45748 | -58.58955 | 27 ft | 15 kts | 63° |
| 2026-04-26 22:39 | -34.45694 | -58.58827 | 24 ft | 20 kts | 62° |
| 2026-04-26 22:39 | -34.45626 | -58.58669 | 22 ft | 22 kts | 63° |
| 2026-04-26 22:39 | -34.45556 | -58.58502 | 20 ft | 22 kts | 63° |
| 2026-04-26 22:39 | -34.45486 | -58.58340 | 17 ft | 21 kts | 62° |
| 2026-04-26 22:40 | -34.45417 | -58.58181 | 15 ft | 22 kts | 62° |
| 2026-04-26 22:40 | -34.45345 | -58.58015 | 13 ft | 21 kts | 62° |
| 2026-04-26 22:40 | -34.45298 | -58.57990 | 12 ft | 9 kts | 326° |
| 2026-04-26 22:40 | -34.45234 | -58.58039 | 12 ft | 13 kts | 334° |
| 2026-04-26 22:41 | -34.45144 | -58.58102 | 11 ft | 17 kts | 329° |
| 2026-04-26 22:41 | -34.45034 | -58.58182 | 11 ft | 19 kts | 329° |
| 2026-04-26 22:41 | -34.44933 | -58.58254 | 10 ft | 11 kts | 330° |
| 2026-04-26 22:41 | -34.44901 | -58.58277 | 10 ft | 0 kts | 328° |
| 2026-04-26 22:42 | -34.44898 | -58.58279 | 10 ft | 3 kts | 328° |
| 2026-04-26 22:43 | -34.44858 | -58.58322 | 10 ft | 10 kts | 308° |
| 2026-04-26 22:43 | -34.44867 | -58.58403 | 10 ft | 11 kts | 226° |
| 2026-04-26 22:43 | -34.44873 | -58.58410 | 10 ft | 0 kts | 224° |
| 2026-04-26 22:44 | -34.44983 | -58.58539 | 13 ft | 49 kts | 224° |
| 2026-04-26 22:44 | -34.45321 | -58.58935 | 73 ft | 78 kts | 226° |
| 2026-04-26 22:44 | -34.45715 | -58.59406 | 254 ft | 82 kts | 224° |
| 2026-04-26 22:44 | -34.46148 | -58.59869 | 439 ft | 83 kts | 223° |
| 2026-04-26 22:45 | -34.46551 | -58.60363 | 637 ft | 82 kts | 226° |
| 2026-04-26 22:45 | -34.46873 | -58.60932 | 797 ft | 84 kts | 248° |
| 2026-04-26 22:45 | -34.46963 | -58.61624 | 977 ft | 84 kts | 274° |
| 2026-04-26 22:45 | -34.46834 | -58.62305 | 1157 ft | 84 kts | 292° |
| 2026-04-26 22:46 | -34.46529 | -58.62907 | 1333 ft | 84 kts | 310° |
| 2026-04-26 22:46 | -34.46082 | -58.63369 | 1502 ft | 85 kts | 328° |
| 2026-04-26 22:46 | -34.45542 | -58.63655 | 1684 ft | 85 kts | 343° |
| 2026-04-26 22:46 | -34.44950 | -58.63767 | 1855 ft | 85 kts | 352° |
| 2026-04-26 22:47 | -34.44365 | -58.63863 | 2026 ft | 86 kts | 352° |
| 2026-04-26 22:47 | -34.43768 | -58.63951 | 2155 ft | 85 kts | 351° |
| 2026-04-26 22:47 | -34.43207 | -58.64048 | 2067 ft | 83 kts | 349° |
| 2026-04-26 22:47 | -34.42633 | -58.64187 | 2023 ft | 87 kts | 346° |
| 2026-04-26 22:48 | -34.42037 | -58.64367 | 2019 ft | 88 kts | 344° |
| 2026-04-26 22:48 | -34.41455 | -58.64563 | 2038 ft | 88 kts | 345° |
| 2026-04-26 22:48 | -34.40859 | -58.64715 | 2064 ft | 87 kts | 348° |
| 2026-04-26 22:48 | -34.40262 | -58.64844 | 2089 ft | 87 kts | 349° |
| 2026-04-26 22:49 | -34.39662 | -58.64969 | 2110 ft | 87 kts | 349° |
| 2026-04-26 22:49 | -34.39060 | -58.65075 | 2127 ft | 88 kts | 356° |
| 2026-04-26 22:49 | -34.38447 | -58.64964 | 2132 ft | 89 kts | 18° |
| 2026-04-26 22:49 | -34.37886 | -58.64616 | 2091 ft | 94 kts | 33° |
| 2026-04-26 22:50 | -34.37421 | -58.64075 | 2079 ft | 91 kts | 56° |
| 2026-04-26 22:50 | -34.37196 | -58.63364 | 2066 ft | 92 kts | 81° |
| 2026-04-26 22:50 | -34.37207 | -58.62598 | 2059 ft | 91 kts | 98° |
| 2026-04-26 22:50 | -34.37314 | -58.61858 | 2061 ft | 90 kts | 103° |
| 2026-04-26 22:51 | -34.37488 | -58.61128 | 2051 ft | 90 kts | 110° |
| 2026-04-26 22:51 | -34.37684 | -58.60407 | 2058 ft | 89 kts | 105° |
| 2026-04-26 22:51 | -34.37810 | -58.59670 | 2044 ft | 90 kts | 101° |
| 2026-04-26 22:51 | -34.37910 | -58.58924 | 2041 ft | 90 kts | 98° |
| 2026-04-26 22:52 | -34.37988 | -58.58175 | 2032 ft | 89 kts | 97° |
| 2026-04-26 22:52 | -34.38044 | -58.57426 | 2027 ft | 89 kts | 95° |
| 2026-04-26 22:52 | -34.38063 | -58.56671 | 2005 ft | 90 kts | 87° |
| 2026-04-26 22:52 | -34.37993 | -58.55926 | 2009 ft | 89 kts | 81° |
| 2026-04-26 22:53 | -34.37877 | -58.55187 | 2000 ft | 89 kts | 78° |
| 2026-04-26 22:53 | -34.37700 | -58.54474 | 2005 ft | 88 kts | 69° |